createdAt,value
2023-08-09T00:01:47.121Z,69.82
2023-08-09T00:03:49.283Z,70.13
2023-08-09T00:05:53.661Z,70.21
2023-08-09T00:07:58.375Z,70.44
2023-08-09T00:10:00.300Z,70.18
2023-08-09T00:12:04.784Z,70.55
2023-08-09T00:14:06.760Z,70.13
2023-08-09T00:16:08.447Z,70.03
2023-08-09T00:18:10.086Z,70.33
2023-08-09T00:20:13.617Z,70.57
2023-08-09T00:22:15.354Z,70.17
2023-08-09T00:24:17.385Z,70.38
2023-08-09T00:26:22.946Z,70.26
2023-08-09T00:28:26.362Z,70.28
2023-08-09T00:30:29.145Z,70.22
2023-08-09T00:32:30.896Z,70.37
2023-08-09T00:34:36.023Z,70.63
2023-08-09T00:36:37.586Z,70.49
2023-08-09T00:38:39.821Z,70.41
2023-08-09T00:40:41.837Z,70.58
2023-08-09T00:42:44.091Z,70.53
2023-08-09T00:44:50.000Z,70.70
2023-08-09T00:46:51.992Z,70.65
2023-08-09T00:48:55.082Z,70.65
2023-08-09T00:50:57.035Z,70.59
2023-08-09T00:53:01.071Z,71.06
2023-08-09T00:55:04.156Z,70.59
2023-08-09T00:57:07.063Z,70.94
2023-08-09T00:59:14.083Z,70.98
2023-08-09T01:01:17.417Z,71.13
2023-08-09T01:03:20.257Z,70.86
2023-08-09T01:05:26.675Z,70.89
2023-08-09T01:07:33.682Z,71.09
2023-08-09T01:09:43.028Z,71.05
2023-08-09T01:11:50.140Z,70.76
2023-08-09T01:13:54.555Z,71.13
2023-08-09T01:15:57.118Z,71.18
2023-08-09T01:18:02.439Z,71.30
2023-08-09T01:20:05.032Z,71.25
2023-08-09T01:22:11.359Z,71.17
2023-08-09T01:24:15.323Z,71.03
2023-08-09T01:26:16.916Z,71.26
2023-08-09T01:28:18.650Z,71.27
2023-08-09T05:53:18.449Z,71.11
2023-08-09T05:55:20.420Z,70.67
2023-08-09T05:57:22.303Z,71.13
2023-08-09T05:59:24.480Z,70.19
2023-08-09T06:01:26.232Z,70.22
2023-08-09T06:03:27.891Z,69.99
2023-08-09T06:05:29.626Z,70.05
2023-08-09T06:07:31.303Z,69.74
2023-08-09T06:09:34.711Z,69.96
2023-08-09T06:11:36.788Z,69.77
2023-08-09T06:13:38.434Z,69.78
2023-08-09T06:15:40.051Z,69.50
2023-08-09T06:17:41.742Z,69.76
2023-08-09T06:19:43.838Z,69.82
2023-08-09T06:21:45.594Z,69.99
2023-08-09T06:23:47.184Z,69.93
2023-08-09T06:25:50.169Z,69.52
2023-08-09T06:27:52.116Z,70.26
2023-08-09T06:29:54.076Z,69.32
2023-08-09T06:31:55.705Z,69.37
2023-08-09T06:33:57.356Z,69.40
2023-08-09T06:35:59.006Z,69.18
2023-08-09T06:38:09.818Z,69.37
2023-08-09T06:40:16.645Z,68.80
2023-08-09T06:42:19.673Z,69.35
2023-08-09T06:44:23.607Z,68.97
2023-08-09T06:46:25.261Z,68.36
2023-08-09T06:48:26.970Z,68.58
2023-08-09T06:50:28.701Z,68.76
2023-08-09T06:52:30.363Z,68.17
2023-08-09T06:54:32.100Z,68.49
2023-08-09T06:56:33.757Z,68.61
2023-08-09T06:58:36.816Z,69.29
2023-08-09T07:00:38.605Z,69.33
2023-08-09T07:02:40.596Z,69.13
2023-08-09T07:04:42.244Z,69.24
2023-08-09T07:06:43.876Z,69.03
2023-08-09T07:08:45.645Z,68.97
2023-08-09T07:10:47.344Z,68.50
2023-08-09T07:12:49.002Z,68.40
2023-08-09T07:14:51.985Z,67.75
2023-08-09T07:16:53.914Z,67.50
2023-08-09T07:18:57.709Z,67.82
2023-08-09T07:21:01.022Z,67.43
2023-08-09T07:23:02.892Z,67.45
2023-08-09T07:25:05.296Z,68.40
2023-08-09T07:27:06.878Z,67.53
2023-08-09T07:29:08.562Z,67.65
2023-08-09T07:31:18.549Z,68.35
2023-08-09T07:33:20.293Z,67.44
2023-08-09T07:35:21.990Z,67.45
2023-08-09T07:37:23.818Z,67.30
2023-08-09T07:39:25.852Z,67.01
2023-08-09T07:41:27.939Z,67.19
2023-08-09T07:43:29.673Z,67.24
2023-08-09T07:45:31.290Z,67.56
2023-08-09T07:47:34.309Z,67.94
2023-08-09T07:49:36.040Z,67.62
2023-08-09T07:51:37.729Z,66.74
2023-08-09T07:53:39.473Z,67.24
2023-08-09T07:55:41.701Z,67.45
2023-08-09T07:57:43.805Z,66.87
2023-08-09T07:59:45.573Z,67.24
2023-08-09T08:01:47.226Z,67.04
2023-08-09T08:03:50.372Z,67.26
2023-08-09T08:05:54.408Z,66.75
2023-08-09T08:07:56.163Z,66.97
2023-08-09T08:09:57.799Z,67.09
2023-08-09T08:12:02.730Z,67.58
2023-08-09T08:14:08.028Z,67.06
2023-08-09T08:16:09.738Z,67.13
2023-08-09T08:18:11.476Z,66.69
2023-08-09T08:20:14.645Z,67.30
2023-08-09T08:22:16.275Z,66.90
2023-08-09T08:24:17.952Z,66.26
2023-08-09T08:26:19.721Z,66.44
2023-08-09T08:28:21.371Z,65.95
2023-08-09T08:30:23.021Z,66.16
2023-08-09T08:32:24.637Z,66.09
2023-08-09T08:34:26.287Z,65.84
2023-08-09T08:36:30.806Z,66.29
2023-08-09T08:38:32.707Z,66.13
2023-08-09T08:40:37.552Z,66.05
2023-08-09T08:42:39.230Z,66.10
2023-08-09T08:44:41.238Z,66.18
2023-08-09T08:46:44.434Z,66.70
2023-08-09T08:48:48.593Z,66.52
2023-08-09T08:50:51.485Z,66.36
2023-08-09T08:52:55.805Z,65.90
2023-08-09T08:54:58.095Z,66.15
2023-08-09T08:56:59.755Z,66.21
2023-08-09T08:59:02.239Z,66.37
2023-08-09T09:01:04.449Z,66.70
2023-08-09T09:03:06.337Z,66.93
2023-08-09T09:05:09.210Z,66.18
2023-08-09T09:07:11.295Z,66.86
2023-08-09T09:09:15.830Z,66.59
2023-08-09T09:11:18.042Z,66.54
2023-08-09T09:13:26.401Z,66.66
2023-08-09T09:15:29.292Z,66.84
2023-08-09T09:17:31.823Z,67.17
2023-08-09T09:19:35.214Z,65.58
2023-08-09T09:21:38.286Z,65.08
2023-08-09T09:23:40.639Z,65.06
2023-08-09T09:25:46.093Z,65.65
2023-08-09T09:27:49.202Z,64.46
2023-08-09T09:29:50.830Z,62.90
2023-08-09T09:31:58.501Z,62.08
2023-08-09T09:34:00.159Z,62.25
2023-08-09T09:36:02.777Z,62.47
2023-08-09T09:38:06.750Z,61.58
2023-08-09T09:40:12.259Z,61.63
2023-08-09T09:42:17.261Z,61.98
2023-08-09T09:44:20.551Z,60.76
2023-08-09T09:48:29.057Z,60.30
2023-08-09T09:50:32.026Z,59.24
2023-08-09T09:52:35.232Z,60.07
2023-08-09T09:54:37.209Z,59.14
2023-08-09T09:56:38.947Z,58.90
2023-08-09T09:58:42.702Z,58.88
2023-08-09T10:00:47.169Z,58.56
2023-08-09T10:02:51.096Z,58.99
2023-08-09T10:04:53.122Z,59.33
2023-08-09T10:06:55.301Z,56.84
2023-08-09T10:08:58.764Z,56.35
2023-08-09T10:11:03.574Z,55.67
2023-08-09T10:13:06.561Z,55.92
2023-08-09T10:15:14.026Z,56.83
2023-08-09T10:17:18.473Z,56.09
2023-08-09T10:19:22.872Z,55.75
2023-08-09T10:21:25.676Z,55.14
2023-08-09T10:23:28.485Z,55.25
2023-08-09T10:25:43.207Z,57.19
2023-08-09T10:27:52.366Z,56.57
2023-08-09T10:29:58.141Z,57.78
2023-08-09T10:32:02.278Z,57.04
2023-08-09T10:34:13.777Z,57.68
2023-08-09T10:36:32.563Z,57.87
2023-08-09T10:38:48.129Z,57.65
2023-08-09T10:40:52.788Z,54.84
2023-08-09T10:42:54.812Z,52.69
2023-08-09T10:45:04.935Z,53.79
2023-08-09T10:47:11.407Z,52.28
2023-08-09T10:49:13.362Z,50.78
2023-08-09T10:51:19.254Z,51.76
2023-08-09T10:53:21.488Z,50.56
2023-08-09T10:55:28.151Z,52.64
2023-08-09T10:57:41.625Z,54.51
2023-08-09T10:59:43.911Z,54.14
2023-08-09T11:01:45.558Z,54.84
2023-08-09T11:03:49.301Z,56.38
2023-08-09T11:05:52.493Z,56.17
2023-08-09T11:07:57.028Z,57.16
2023-08-09T11:09:58.668Z,56.68
2023-08-09T11:12:00.515Z,56.33
2023-08-09T11:14:02.772Z,56.48
2023-08-09T11:16:08.870Z,55.21
2023-08-09T11:18:10.696Z,55.55
2023-08-09T11:20:15.425Z,58.61
2023-08-09T11:22:17.168Z,60.52
2023-08-09T11:24:21.091Z,61.62
2023-08-09T11:26:23.769Z,61.14
2023-08-09T11:28:26.745Z,59.71
2023-08-09T11:30:31.485Z,61.45
2023-08-09T11:32:33.151Z,62.66
2023-08-09T11:34:35.026Z,63.89
2023-08-09T11:36:38.142Z,63.50
2023-08-09T11:38:40.102Z,64.04
2023-08-09T11:40:43.998Z,65.49
2023-08-09T11:42:45.559Z,65.08
2023-08-09T11:44:47.197Z,64.39
2023-08-09T11:46:51.635Z,64.93
2023-08-09T11:48:53.329Z,65.12
2023-08-09T11:51:06.780Z,64.77
2023-08-09T11:53:10.679Z,65.46
2023-08-09T11:55:12.366Z,66.16
2023-08-09T11:57:13.970Z,67.15
2023-08-09T11:59:18.580Z,67.21
2023-08-09T12:01:22.193Z,67.48
2023-08-09T12:03:23.947Z,65.90
2023-08-09T12:05:25.900Z,67.22
2023-08-09T12:07:27.551Z,66.50
2023-08-09T12:09:32.331Z,66.54
2023-08-09T12:11:34.270Z,67.77
2023-08-09T12:13:36.353Z,66.93
2023-08-09T12:15:37.939Z,67.29
2023-08-09T12:17:39.646Z,67.06
2023-08-09T12:19:41.579Z,66.75
2023-08-09T12:21:43.641Z,66.26
2023-08-09T12:23:45.407Z,64.87
2023-08-09T12:25:48.462Z,65.40
2023-08-09T12:27:50.117Z,64.30
2023-08-09T12:29:53.040Z,65.25
2023-08-09T12:31:54.737Z,63.00
2023-08-09T12:33:56.693Z,63.37
2023-08-09T12:35:58.343Z,63.15
2023-08-09T12:37:59.934Z,64.32
2023-08-09T12:40:01.778Z,64.66
2023-08-09T12:42:10.846Z,62.64
2023-08-09T12:44:12.742Z,62.73
2023-08-09T12:46:14.451Z,62.68
2023-08-09T12:48:16.507Z,63.40
2023-08-09T12:50:18.238Z,61.21
2023-08-09T12:52:19.802Z,61.63
2023-08-09T12:54:21.742Z,61.58
2023-08-09T12:56:25.715Z,61.93
2023-08-09T12:58:29.142Z,60.73
2023-08-09T13:00:31.009Z,60.55
2023-08-09T13:02:32.638Z,60.65
2023-08-09T13:04:37.088Z,60.69
2023-08-09T13:06:38.682Z,60.00
2023-08-09T13:08:40.438Z,61.64
2023-08-09T13:10:42.501Z,60.63
2023-08-09T13:12:44.586Z,60.32
2023-08-09T13:14:47.775Z,60.32
2023-08-09T13:16:49.324Z,59.19
2023-08-09T13:18:50.994Z,60.65
2023-08-09T13:20:52.598Z,59.59
2023-08-09T13:22:54.552Z,60.40
2023-08-09T13:24:56.453Z,61.46
2023-08-09T13:26:58.142Z,61.57
2023-08-09T13:28:59.763Z,60.82
2023-08-09T13:31:02.849Z,61.17
2023-08-09T13:33:05.357Z,61.48
2023-08-09T13:35:08.353Z,61.70
2023-08-09T13:37:10.063Z,62.77
2023-08-09T13:39:11.666Z,61.45
2023-08-09T13:41:13.410Z,61.37
2023-08-09T13:43:15.168Z,60.71
2023-08-09T13:45:16.957Z,59.76
2023-08-09T13:47:20.446Z,60.00
2023-08-09T13:49:23.407Z,59.37
2023-08-09T13:51:26.303Z,60.25
2023-08-09T13:53:27.924Z,59.12
2023-08-09T13:55:30.084Z,57.24
2023-08-09T13:57:31.763Z,58.56
2023-08-09T13:59:33.418Z,58.50
2023-08-09T14:01:35.162Z,58.90
2023-08-09T14:03:38.167Z,58.94
2023-08-09T14:05:39.810Z,56.67
2023-08-09T14:07:42.695Z,57.06
2023-08-09T14:09:45.885Z,56.29
2023-08-09T14:11:47.656Z,56.27
2023-08-09T14:13:49.375Z,56.40
2023-08-09T14:15:51.224Z,56.55
2023-08-09T14:17:53.952Z,55.87
2023-08-09T14:19:57.086Z,55.61
2023-08-09T14:21:58.736Z,55.06
2023-08-09T14:24:00.392Z,55.40
2023-08-09T14:26:02.267Z,55.37
2023-08-09T14:28:04.436Z,55.37
2023-08-09T14:30:07.400Z,55.20
2023-08-09T14:32:09.329Z,55.03
2023-08-09T14:34:11.018Z,55.41
2023-08-09T14:36:16.332Z,54.44
2023-08-09T14:38:17.998Z,54.59
2023-08-09T14:40:19.715Z,54.68
2023-08-09T14:42:21.529Z,52.56
2023-08-09T14:44:23.377Z,52.98
2023-08-09T14:46:25.575Z,52.61
2023-08-09T14:48:27.302Z,52.00
2023-08-09T14:50:29.036Z,52.03
2023-08-09T14:52:33.555Z,52.20
2023-08-09T14:54:38.744Z,52.57
2023-08-09T14:56:41.026Z,52.63
2023-08-09T14:58:44.255Z,51.75
2023-08-09T15:00:46.249Z,52.15
2023-08-09T15:02:48.500Z,52.65
2023-08-09T15:04:50.526Z,52.34
2023-08-09T15:06:52.186Z,51.94
2023-08-09T15:08:55.229Z,51.72
2023-08-09T15:10:56.988Z,50.67
2023-08-09T15:12:58.664Z,51.56
2023-08-09T15:15:00.640Z,49.92
2023-08-09T15:17:09.766Z,50.48
2023-08-09T15:19:15.671Z,51.19
2023-08-09T15:21:17.442Z,50.67
2023-08-09T15:23:19.548Z,50.99
2023-08-09T15:25:24.355Z,50.45
2023-08-09T15:27:26.419Z,50.63
2023-08-09T15:29:28.063Z,50.97
2023-08-09T15:31:29.787Z,51.02
2023-08-09T15:33:31.546Z,50.19
2023-08-09T15:35:33.333Z,50.66
2023-08-09T15:37:35.039Z,50.18
2023-08-09T15:39:36.625Z,50.02
2023-08-09T15:41:39.513Z,49.43
2023-08-09T15:43:41.251Z,48.83
2023-08-09T15:45:43.185Z,49.14
2023-08-09T15:47:45.116Z,49.24
2023-08-09T15:49:47.306Z,49.15
2023-08-09T15:51:49.273Z,49.91
2023-08-09T15:53:50.913Z,49.18
2023-08-09T15:55:52.592Z,48.55
2023-08-09T15:57:55.674Z,48.37
2023-08-09T15:59:57.350Z,48.57
2023-08-09T16:01:59.207Z,49.06
2023-08-09T16:04:00.968Z,48.80
2023-08-09T16:06:02.787Z,48.80
2023-08-09T16:08:05.167Z,49.24
2023-08-09T16:10:08.089Z,49.49
2023-08-09T16:12:09.857Z,49.82
2023-08-09T16:14:12.970Z,49.83
2023-08-09T16:16:28.288Z,49.92
2023-08-09T16:18:35.450Z,49.84
2023-08-09T16:20:37.201Z,50.60
2023-08-09T16:22:38.851Z,50.59
2023-08-09T16:24:40.673Z,50.43
2023-08-09T16:26:42.852Z,50.67
2023-08-09T16:28:44.916Z,51.27
2023-08-09T16:30:48.045Z,51.16
2023-08-09T16:32:50.285Z,50.10
2023-08-09T16:34:52.733Z,50.22
2023-08-09T16:36:54.911Z,50.30
2023-08-09T16:38:56.646Z,50.68
2023-08-09T16:40:58.271Z,51.22
2023-08-09T16:43:00.358Z,50.81
2023-08-09T16:45:02.430Z,51.72
2023-08-09T16:47:06.154Z,51.69
2023-08-09T16:49:07.861Z,51.29
2023-08-09T16:51:10.056Z,52.02
2023-08-09T16:53:11.888Z,51.55
2023-08-09T16:55:13.764Z,52.19
2023-08-09T16:57:15.352Z,53.53
2023-08-09T16:59:16.970Z,54.04
2023-08-09T17:01:18.719Z,52.98
2023-08-09T17:03:22.296Z,53.38
2023-08-09T17:05:24.087Z,52.68
2023-08-09T17:07:26.814Z,52.89
2023-08-09T17:09:28.463Z,52.70
2023-08-09T17:11:30.428Z,52.95
2023-08-09T17:13:32.497Z,53.35
2023-08-09T17:15:34.169Z,53.57
2023-08-09T17:17:35.902Z,53.29
2023-08-09T17:19:38.863Z,53.21
2023-08-09T17:21:40.773Z,53.01
2023-08-09T17:23:43.019Z,53.41
2023-08-09T17:25:44.696Z,53.00
2023-08-09T17:27:46.591Z,53.75
2023-08-09T17:29:48.273Z,54.08
2023-08-09T17:31:50.150Z,53.89
2023-08-09T17:33:51.900Z,54.46
2023-08-09T17:35:56.168Z,54.79
2023-08-09T17:37:57.770Z,54.18
2023-08-09T17:39:59.937Z,53.84
2023-08-09T17:42:03.143Z,54.48
2023-08-09T17:44:05.807Z,54.59
2023-08-09T17:46:07.424Z,54.47
2023-08-09T17:48:09.386Z,55.06
2023-08-09T17:50:11.346Z,54.90
2023-08-09T17:52:14.405Z,54.95
2023-08-09T17:54:16.053Z,55.25
2023-08-09T17:56:17.985Z,55.16
2023-08-09T17:58:20.107Z,55.75
2023-08-09T18:00:22.198Z,55.85
2023-08-09T18:02:24.160Z,55.68
2023-08-09T18:04:26.048Z,55.41
2023-08-09T18:06:28.002Z,55.31
2023-08-09T18:08:31.201Z,55.92
2023-08-09T18:10:33.020Z,55.60
2023-08-09T18:12:34.833Z,54.96
2023-08-09T18:14:36.673Z,55.54
2023-08-09T18:16:40.501Z,55.49
2023-08-09T18:18:42.588Z,55.77
2023-08-09T18:20:44.574Z,55.99
2023-08-09T18:22:48.674Z,56.05
2023-08-09T18:24:51.908Z,56.42
2023-08-09T18:26:57.962Z,56.49
2023-08-09T18:29:01.278Z,56.39
2023-08-09T18:31:03.132Z,56.32
2023-08-09T18:33:05.120Z,56.07
2023-08-09T18:35:17.356Z,56.05
2023-08-09T18:37:20.459Z,56.28
2023-08-09T18:39:22.685Z,55.99
2023-08-09T18:41:25.802Z,56.26
2023-08-09T18:43:27.441Z,56.19
2023-08-09T18:45:31.124Z,56.82
2023-08-09T18:47:33.600Z,56.42
2023-08-09T18:49:35.505Z,56.63
2023-08-09T18:51:37.241Z,56.47
2023-08-09T18:53:39.054Z,56.59
2023-08-09T18:55:42.566Z,56.30
2023-08-09T18:57:45.772Z,56.44
2023-08-09T18:59:47.659Z,56.60
2023-08-09T19:01:49.556Z,56.84
2023-08-09T19:03:52.804Z,57.21
2023-08-09T19:05:54.996Z,57.28
2023-08-09T19:08:00.020Z,57.34
2023-08-09T19:10:02.113Z,57.21
2023-08-09T19:12:03.994Z,57.59
2023-08-09T19:14:07.412Z,57.73
2023-08-09T19:16:09.244Z,57.76
2023-08-09T19:18:11.781Z,57.99
2023-08-09T19:20:19.263Z,57.92
2023-08-09T19:22:24.327Z,58.06
2023-08-09T19:24:26.270Z,57.96
2023-08-09T19:26:28.124Z,57.91
2023-08-09T19:28:30.589Z,58.06
2023-08-09T19:30:33.850Z,58.22
2023-08-09T19:32:35.697Z,58.23
2023-08-09T19:34:37.376Z,58.39
2023-08-09T19:36:44.922Z,58.56
2023-08-09T19:38:47.099Z,58.96
2023-08-09T19:40:49.010Z,58.63
2023-08-09T19:42:51.300Z,58.71
2023-08-09T19:44:53.284Z,58.61
2023-08-09T19:46:56.908Z,58.79
2023-08-09T19:48:58.590Z,58.75
2023-08-09T19:51:00.377Z,58.86
2023-08-09T19:53:02.443Z,59.09
2023-08-09T19:55:05.125Z,58.78
2023-08-09T19:57:07.001Z,59.14
2023-08-09T19:59:08.971Z,59.12
2023-08-09T20:01:10.880Z,59.18
2023-08-09T20:03:14.285Z,59.48
2023-08-09T20:05:16.548Z,59.62
2023-08-09T20:07:18.362Z,59.98
2023-08-09T20:09:20.039Z,60.33
2023-08-09T20:11:21.872Z,60.19
2023-08-09T20:13:23.845Z,60.06
2023-08-09T20:15:25.586Z,60.10
2023-08-09T20:17:27.803Z,60.81
2023-08-09T20:19:31.401Z,60.84
2023-08-09T20:21:33.136Z,61.09
2023-08-09T20:23:35.683Z,61.39
2023-08-09T20:25:37.393Z,61.61
2023-08-09T20:27:39.408Z,61.75
2023-08-09T20:29:43.057Z,62.44
2023-08-09T20:31:45.635Z,62.47
2023-08-09T20:33:47.385Z,62.82
2023-08-09T20:35:50.762Z,63.24
2023-08-09T20:37:53.768Z,63.06
2023-08-09T20:39:56.302Z,63.80
2023-08-09T20:41:57.981Z,64.18
2023-08-09T20:43:59.855Z,64.36
2023-08-09T20:46:04.732Z,64.39
2023-08-09T20:48:07.108Z,64.51
2023-08-09T20:50:10.017Z,65.24
2023-08-09T20:52:13.456Z,64.90
2023-08-09T20:54:15.364Z,65.45
2023-08-09T20:56:17.027Z,65.34
2023-08-09T20:58:18.670Z,65.34
2023-08-09T21:00:20.680Z,65.68
2023-08-09T21:02:22.369Z,65.69
2023-08-09T21:04:24.053Z,66.00
2023-08-09T21:06:25.930Z,66.02
2023-08-09T21:08:29.081Z,65.96
2023-08-09T21:10:31.587Z,65.87
2023-08-09T21:12:33.418Z,65.92
2023-08-09T21:14:39.073Z,66.05
2023-08-09T21:16:41.070Z,66.00
2023-08-09T21:18:44.404Z,66.33
2023-08-09T21:20:46.701Z,66.10
2023-08-09T21:22:48.343Z,66.43
2023-08-09T21:29:02.302Z,66.57
2023-08-09T21:31:05.141Z,66.29
2023-08-09T21:33:08.515Z,66.54
2023-08-09T21:35:10.576Z,66.51
2023-08-09T21:37:13.605Z,66.47
2023-08-09T21:39:15.864Z,66.78
2023-08-09T21:41:22.051Z,66.27
2023-08-09T21:43:24.454Z,66.64
2023-08-09T21:45:26.943Z,66.48
2023-08-09T21:47:30.528Z,66.99
2023-08-09T21:49:33.141Z,66.60
2023-08-09T21:51:36.288Z,67.13
2023-08-09T21:53:38.288Z,67.04
2023-08-09T21:55:40.779Z,67.36
2023-08-09T21:57:44.985Z,67.26
2023-08-09T21:59:47.657Z,67.37
2023-08-09T22:02:30.325Z,66.30
2023-08-09T22:04:32.103Z,67.64
2023-08-09T22:06:33.889Z,68.08
2023-08-09T22:08:35.544Z,67.96
2023-08-09T22:10:37.222Z,67.93
2023-08-09T22:12:39.136Z,68.02
2023-08-09T22:14:42.108Z,68.09
2023-08-09T22:16:44.051Z,68.11
2023-08-09T22:18:45.680Z,68.33
2023-08-09T22:20:48.022Z,68.44
2023-08-09T22:22:49.677Z,68.23
2023-08-09T22:24:51.301Z,68.55
2023-08-09T22:26:53.159Z,68.26
2023-08-09T22:28:54.780Z,68.28
2023-08-09T22:30:58.066Z,68.08
2023-08-09T22:32:59.770Z,67.93
2023-08-09T22:35:01.488Z,68.28
2023-08-09T22:37:03.469Z,67.31
2023-08-09T22:39:05.413Z,67.41
2023-08-09T22:41:07.291Z,67.52
2023-08-09T22:43:09.002Z,67.94
2023-08-09T22:45:10.755Z,67.79
2023-08-09T22:47:14.176Z,67.65
2023-08-09T22:49:16.127Z,67.96
2023-08-09T22:51:18.094Z,67.42
2023-08-09T22:53:19.717Z,67.69
2023-08-09T22:55:21.707Z,67.74
2023-08-09T22:57:23.870Z,67.74
2023-08-09T22:59:25.599Z,67.38
2023-08-09T23:01:27.649Z,67.87
2023-08-09T23:03:30.942Z,67.42
2023-08-09T23:05:32.712Z,67.41
2023-08-09T23:07:34.460Z,67.66
2023-08-09T23:09:36.612Z,67.38
2023-08-09T23:11:38.262Z,67.54
2023-08-09T23:13:40.228Z,67.24
2023-08-09T23:15:42.102Z,67.38
2023-08-09T23:17:43.812Z,66.72
2023-08-09T23:19:47.047Z,66.85
2023-08-09T23:21:48.927Z,66.48
2023-08-09T23:23:50.533Z,66.43
2023-08-09T23:25:52.226Z,66.23
2023-08-09T23:27:53.966Z,66.13
2023-08-09T23:29:55.580Z,66.25
2023-08-09T23:31:57.242Z,66.17
2023-08-09T23:33:59.014Z,65.26
2023-08-09T23:36:03.211Z,66.07
2023-08-09T23:38:04.891Z,65.62
2023-08-09T23:40:08.342Z,65.52
2023-08-09T23:42:10.669Z,65.31
2023-08-09T23:44:12.806Z,64.57
2023-08-09T23:46:14.476Z,65.23
2023-08-09T23:48:16.232Z,65.10
2023-08-09T23:50:17.924Z,64.85
2023-08-09T23:52:20.946Z,64.80
2023-08-09T23:54:22.623Z,64.75
2023-08-09T23:56:24.265Z,64.88
2023-08-09T23:58:25.962Z,64.96
